Time;durP1;ratioP1;P1;durP2;ratioP2;P2;SDS_P1;SDS_P2;PMS_P1;PMS_P2;Temp;Humidity;BMP_temperature;BMP_pressure;BME280_temperature;BME280_humidity;BME280_pressure;Samples;Min_cycle;Max_cycle;Signal;HPM_P1;HPM_P2
2022/12/13 00:01:36;;;;;;;3.77;2.53;;;;;;;6.53;79.41;96233.13;5107205;28;20194;-73
2022/12/13 00:04:05;;;;;;;3.43;2.70;;;;;;;6.62;80.53;96249.06;5088770;28;20218;-73
2022/12/13 00:06:33;;;;;;;2.50;2.00;;;;;;;6.59;79.38;96230.31;5107358;28;20183;-73
2022/12/13 00:09:01;;;;;;;2.10;1.90;;;;;;;6.61;79.56;96240.53;5107341;28;20655;-73
2022/12/13 00:11:28;;;;;;;3.73;2.30;;;;;;;6.73;80.11;96244.31;5107094;28;20232;-73
2022/12/13 00:13:55;;;;;;;2.90;2.20;;;;;;;6.85;80.43;96254.06;5107393;28;20228;-72
2022/12/13 00:16:24;;;;;;;1.13;1.13;;;;;;;6.71;72.09;96253.84;5106968;28;20197;-72
2022/12/13 00:18:56;;;;;;;2.03;0.90;;;;;;;6.20;67.81;96244.03;5106918;28;20189;-71
2022/12/13 00:21:29;;;;;;;1.20;1.10;;;;;;;5.89;68.64;96251.31;5106810;28;20197;-72
2022/12/13 00:23:57;;;;;;;1.00;1.00;;;;;;;5.82;68.70;96258.38;5106929;28;20218;-72
2022/12/13 00:26:27;;;;;;;0.97;0.97;;;;;;;5.58;68.73;96265.34;5106928;28;20659;-72
2022/12/13 00:28:55;;;;;;;0.93;0.93;;;;;;;5.63;68.07;96253.13;5106857;28;20645;-71
2022/12/13 00:31:24;;;;;;;0.90;0.90;;;;;;;5.56;69.10;96248.31;5106796;28;20190;-72
2022/12/13 00:34:11;;;;;;;0.97;0.97;;;;;;;5.53;69.72;96258.69;5106598;28;20182;-72
2022/12/13 00:36:38;;;;;;;1.00;1.00;;;;;;;5.51;69.16;96245.06;5106771;28;20645;-72
2022/12/13 00:39:05;;;;;;;1.33;1.20;;;;;;;5.38;69.42;96247.25;5106822;28;20192;-72
2022/12/13 00:41:34;;;;;;;1.23;1.10;;;;;;;5.39;68.96;96242.97;5106711;28;20184;-72
2022/12/13 00:44:02;;;;;;;1.40;1.30;;;;;;;5.42;68.78;96242.88;5106679;28;20690;-72
2022/12/13 00:46:30;;;;;;;1.07;1.07;;;;;;;5.31;68.43;96250.13;5106604;28;20281;-72
2022/12/13 00:49:00;;;;;;;1.43;1.27;;;;;;;5.24;67.82;96253.81;5106488;28;20674;-72
2022/12/13 00:51:29;;;;;;;1.43;1.10;;;;;;;5.02;69.38;96209.31;5106538;28;20185;-72
2022/12/13 00:53:57;;;;;;;1.37;1.23;;;;;;;5.28;67.77;96255.38;5106490;28;20215;-71
2022/12/13 00:56:26;;;;;;;1.30;1.20;;;;;;;5.21;67.42;96253.94;5106548;28;20701;-72
2022/12/13 00:58:53;;;;;;;1.20;1.10;;;;;;;5.16;68.55;96248.13;5106564;28;20185;-71
2022/12/13 01:01:26;;;;;;;1.80;1.40;;;;;;;5.28;68.38;96270.78;5106505;28;20668;-72
2022/12/13 01:03:55;;;;;;;1.30;1.20;;;;;;;5.12;68.93;96272.25;5106437;28;20184;-72
2022/12/13 01:06:32;;;;;;;1.40;1.30;;;;;;;5.02;70.23;96273.47;5110228;28;20311;-73
2022/12/13 01:09:01;;;;;;;1.47;1.37;;;;;;;4.86;68.56;96268.88;5110421;28;20277;-72
2022/12/13 01:11:28;;;;;;;1.47;1.37;;;;;;;4.74;68.75;96259.06;5126209;27;20195;-71
2022/12/13 01:13:54;;;;;;;1.50;1.40;;;;;;;4.88;70.20;96272.22;5110228;28;20234;-72
2022/12/13 01:16:21;;;;;;;2.10;1.60;;;;;;;5.06;69.55;96272.47;5110512;28;20185;-72
2022/12/13 01:18:49;;;;;;;1.70;1.60;;;;;;;5.34;69.20;96275.66;5110458;28;20582;-72
2022/12/13 01:21:19;;;;;;;1.63;1.50;;;;;;;5.35;67.54;96261.97;5110274;28;20191;-72
2022/12/13 01:23:48;;;;;;;2.03;1.50;;;;;;;5.22;67.16;96271.00;5110248;28;20190;-71
2022/12/13 01:26:17;;;;;;;1.73;1.63;;;;;;;5.06;69.36;96280.16;5110885;28;20196;-71
2022/12/13 01:28:45;;;;;;;2.10;1.77;;;;;;;4.98;68.46;96277.88;5110334;28;20191;-72
2022/12/13 01:31:14;;;;;;;1.87;1.73;;;;;;;5.10;68.16;96282.56;5110181;28;20217;-72
2022/12/13 01:33:42;;;;;;;2.93;1.80;;;;;;;5.14;68.01;96284.13;5110182;28;20264;-73
2022/12/13 01:36:13;;;;;;;2.50;2.00;;;;;;;5.14;68.92;96273.00;5110340;28;20299;-72
2022/12/13 01:38:40;;;;;;;2.60;2.40;;;;;;;5.09;67.29;96280.06;5091611;28;20185;-73
2022/12/13 01:41:08;;;;;;;3.07;2.00;;;;;;;4.97;66.06;96291.59;5109761;28;20655;-71
2022/12/13 01:43:49;;;;;;;2.03;1.83;;;;;;;4.75;65.82;96281.28;5110111;28;20326;-73
2022/12/13 01:46:17;;;;;;;2.23;1.73;;;;;;;4.47;65.62;96279.72;5109964;28;20264;-73
2022/12/13 01:48:52;;;;;;;1.90;1.70;;;;;;;4.28;65.87;96281.22;5109972;28;20198;-73
2022/12/13 01:51:24;;;;;;;3.53;2.07;;;;;;;4.20;67.05;96286.59;5109790;28;20306;-74
2022/12/13 01:53:53;;;;;;;3.17;2.20;;;;;;;4.06;67.20;96279.34;5091200;28;20226;-72
2022/12/13 01:56:26;;;;;;;2.10;1.90;;;;;;;4.04;66.57;96285.41;5109820;28;20180;-72
2022/12/13 01:58:55;;;;;;;3.80;1.83;;;;;;;4.07;65.62;96285.31;5109512;28;20200;-73
2022/12/13 02:01:23;;;;;;;2.13;1.83;;;;;;;4.07;65.71;96290.44;5109507;28;20210;-73
2022/12/13 02:03:50;;;;;;;3.73;2.20;;;;;;;4.07;65.31;96291.28;5109499;28;20662;-73
2022/12/13 02:06:40;;;;;;;1.90;1.60;;;;;;;4.01;64.97;96288.09;5109454;28;20196;-74
2022/12/13 02:09:09;;;;;;;2.10;1.90;;;;;;;4.05;64.66;96294.78;5091263;28;20191;-74
2022/12/13 02:11:40;;;;;;;4.83;2.23;;;;;;;4.08;64.17;96294.69;5115985;27;20246;-74
2022/12/13 02:14:08;;;;;;;2.77;2.23;;;;;;;4.10;63.25;96300.59;5130018;27;20215;-74
2022/12/13 02:16:52;;;;;;;2.53;2.00;;;;;;;4.10;63.13;96310.84;5128977;27;20203;-73
2022/12/13 02:19:47;;;;;;;2.87;2.17;;;;;;;4.03;63.40;96306.81;5111393;27;20278;-73
2022/12/13 02:22:46;;;;;;;2.27;2.00;;;;;;;4.03;62.88;96312.78;5129584;27;20183;-73
2022/12/13 02:25:43;;;;;;;3.10;2.30;;;;;;;3.96;63.16;96302.75;5129780;27;20180;-73
2022/12/13 02:28:43;;;;;;;2.53;2.03;;;;;;;3.99;62.35;96325.72;5129610;27;20653;-73
2022/12/13 02:31:33;;;;;;;2.53;2.20;;;;;;;3.96;62.08;96320.69;5129551;27;20276;-73
2022/12/13 02:34:12;;;;;;;2.87;2.03;;;;;;;3.84;61.70;96321.91;5129369;27;20655;-73
2022/12/13 02:37:00;;;;;;;3.00;2.47;;;;;;;3.80;62.52;96329.72;5129350;27;20603;-73
2022/12/13 02:39:38;;;;;;;3.13;2.20;;;;;;;3.83;62.56;96334.78;5145218;27;20186;-73
2022/12/13 02:42:15;;;;;;;3.30;2.47;;;;;;;3.82;62.15;96326.25;5129129;27;20199;-73
2022/12/13 02:44:47;;;;;;;2.20;1.80;;;;;;;3.67;62.04;96328.44;5129554;27;20222;-73
2022/12/13 02:47:20;;;;;;;3.93;2.70;;;;;;;3.73;63.08;96330.81;5129452;27;20194;-73
2022/12/13 02:49:53;;;;;;;3.30;2.43;;;;;;;3.78;62.60;96334.06;5129170;27;20215;-73
2022/12/13 02:52:24;;;;;;;2.30;1.90;;;;;;;3.84;62.69;96323.63;5129071;27;20191;-72
2022/12/13 02:54:54;;;;;;;3.60;2.43;;;;;;;3.75;62.66;96324.75;5129041;27;20194;-74
2022/12/13 02:57:36;;;;;;;3.10;2.50;;;;;;;3.90;62.50;96328.56;5128995;27;20190;-73
2022/12/13 03:00:07;;;;;;;2.90;2.10;;;;;;;3.85;61.09;96335.56;5129149;27;20191;-73
2022/12/13 03:02:37;;;;;;;3.30;2.50;;;;;;;3.84;61.70;96332.16;5129042;27;20183;-73
2022/12/13 03:08:25;;;;;;;2.33;2.10;;;;;;;3.93;61.39;96334.44;5128700;27;20271;-73
2022/12/13 03:11:14;;;;;;;3.93;2.40;;;;;;;3.92;61.31;96329.34;5128768;27;20225;-73
2022/12/13 03:13:44;;;;;;;4.60;2.80;;;;;;;3.99;62.12;96329.13;5110044;27;20618;-73
2022/12/13 03:16:32;;;;;;;3.03;2.20;;;;;;;3.86;62.06;96334.66;5128945;27;20186;-72
2022/12/13 03:19:02;;;;;;;3.50;2.50;;;;;;;3.83;61.54;96338.16;5128562;27;20278;-73
2022/12/13 03:21:40;;;;;;;2.20;2.00;;;;;;;3.96;61.51;96341.16;5129141;27;20654;-72
2022/12/13 03:24:16;;;;;;;6.70;3.57;;;;;;;3.84;60.96;96344.09;5128537;27;20299;-73
2022/12/13 03:26:45;;;;;;;3.23;2.40;;;;;;;3.89;61.02;96332.00;5128369;27;20187;-73
2022/12/13 03:29:12;;;;;;;3.63;2.47;;;;;;;3.99;61.41;96341.09;5128170;27;20187;-73
2022/12/13 03:31:50;;;;;;;2.83;2.40;;;;;;;3.80;60.76;96339.97;5109649;27;20227;-72
2022/12/13 03:34:16;;;;;;;3.43;2.60;;;;;;;3.83;60.85;96353.50;5128519;27;20211;-73
2022/12/13 03:36:52;;;;;;;2.80;2.40;;;;;;;3.76;60.77;96341.78;5128331;27;20187;-72
2022/12/13 03:39:20;;;;;;;2.90;2.33;;;;;;;3.71;61.11;96337.72;5128497;27;20187;-74
2022/12/13 03:41:48;;;;;;;3.17;2.10;;;;;;;3.61;60.51;96328.59;5128191;27;20183;-72
2022/12/13 03:44:15;;;;;;;3.53;2.40;;;;;;;3.67;60.65;96343.81;5128053;27;20190;-72
2022/12/13 03:46:43;;;;;;;3.43;2.20;;;;;;;3.80;61.97;96345.09;5128112;27;20195;-73
2022/12/13 03:49:10;;;;;;;3.17;2.30;;;;;;;3.86;60.76;96350.88;5128071;27;20183;-71
2022/12/13 03:51:43;;;;;;;2.20;2.00;;;;;;;3.83;59.94;96352.69;5128095;27;20260;-72
2022/12/13 03:54:10;;;;;;;2.67;2.13;;;;;;;3.85;59.62;96343.25;5128049;27;20195;-72
2022/12/13 03:56:37;;;;;;;2.20;1.90;;;;;;;3.77;59.82;96351.13;5128249;27;20187;-71
2022/12/13 03:59:04;;;;;;;3.13;2.33;;;;;;;3.60;59.52;96360.22;5127796;27;20187;-72
2022/12/13 04:01:31;;;;;;;2.60;2.23;;;;;;;3.40;59.22;96319.03;5127978;27;20202;-72
2022/12/13 04:03:58;;;;;;;2.27;1.90;;;;;;;3.50;59.06;96321.28;5127750;27;20203;-72
2022/12/13 04:06:25;;;;;;;2.50;2.27;;;;;;;3.60;59.43;96337.19;5109481;27;20654;-72
2022/12/13 04:08:58;;;;;;;2.20;1.90;;;;;;;3.66;59.19;96345.53;5127864;27;20716;-73
2022/12/13 04:14:11;;;;;;;2.77;2.20;;;;;;;3.56;58.69;96340.72;5127708;27;20267;-73
2022/12/13 04:16:49;;;;;;;3.50;2.50;;;;;;;3.44;58.38;96325.72;5127442;27;20186;-73
2022/12/13 04:19:15;;;;;;;1.97;1.83;;;;;;;3.44;57.59;96323.16;5127591;27;20205;-70
2022/12/13 04:21:51;;;;;;;3.13;2.50;;;;;;;3.38;57.79;96319.03;5109161;27;20202;-71
2022/12/13 04:24:17;;;;;;;2.70;2.50;;;;;;;3.51;58.18;96345.97;5127391;27;20255;-71
2022/12/13 04:26:44;;;;;;;3.47;2.63;;;;;;;3.46;58.48;96342.72;5127584;27;20187;-71
2022/12/13 04:29:11;;;;;;;2.67;2.47;;;;;;;3.38;57.42;96348.94;5108537;27;20199;-71
2022/12/13 04:31:39;;;;;;;2.80;2.30;;;;;;;3.30;57.92;96334.63;5127010;27;20218;-72
2022/12/13 04:34:06;;;;;;;2.80;2.30;;;;;;;3.42;57.92;96346.22;5127173;27;20592;-72
2022/12/13 04:36:33;;;;;;;3.73;2.40;;;;;;;3.46;57.79;96349.56;5126456;28;20179;-73
2022/12/13 04:39:02;;;;;;;2.40;2.20;;;;;;;3.64;57.42;96361.81;5120323;27;20264;-71
2022/12/13 04:41:50;;;;;;;3.17;2.20;;;;;;;3.65;57.18;96364.31;5116973;28;20285;-72
2022/12/13 04:44:18;;;;;;;2.73;2.23;;;;;;;3.54;55.93;96361.25;5127124;28;20684;-72
2022/12/13 04:46:54;;;;;;;3.20;2.33;;;;;;;3.42;55.86;96371.00;5127448;28;20289;-73
2022/12/13 04:49:27;;;;;;;2.63;2.20;;;;;;;3.31;56.85;96366.19;5127107;28;20328;-72
2022/12/13 04:51:54;;;;;;;1.80;1.70;;;;;;;3.12;57.52;96367.56;5142792;27;20596;-72
2022/12/13 04:54:27;;;;;;;4.10;2.63;;;;;;;3.15;57.23;96363.19;5127212;28;20229;-73
2022/12/13 04:57:08;;;;;;;4.57;2.97;;;;;;;3.12;57.16;96358.19;5127210;28;20273;-73
2022/12/13 04:59:36;;;;;;;6.23;3.43;;;;;;;3.30;56.69;96378.13;5126888;28;20201;-73
2022/12/13 05:02:04;;;;;;;4.50;2.83;;;;;;;3.46;57.02;96368.31;5119079;28;20194;-72
2022/12/13 05:04:31;;;;;;;3.37;2.50;;;;;;;3.48;56.46;96389.56;5109009;28;20196;-72
2022/12/13 05:07:00;;;;;;;2.87;2.50;;;;;;;3.36;56.15;96381.41;5106174;28;20198;-72
2022/12/13 05:09:27;;;;;;;5.47;2.60;;;;;;;3.45;56.36;96402.44;5106522;28;20241;-72
2022/12/13 05:11:54;;;;;;;2.60;2.27;;;;;;;3.25;56.74;96397.06;5106336;28;20211;-72
2022/12/13 05:14:31;;;;;;;2.93;2.53;;;;;;;3.22;56.41;96389.44;5106305;28;20227;-73
2022/12/13 05:16:59;;;;;;;3.77;2.90;;;;;;;3.29;55.33;96416.56;5106420;28;20188;-72
2022/12/13 05:19:27;;;;;;;4.97;2.50;;;;;;;3.46;55.82;96416.09;5106087;28;20188;-74
2022/12/13 05:22:00;;;;;;;4.17;2.30;;;;;;;3.38;55.39;96425.69;5106196;28;20667;-71
2022/12/13 05:24:30;;;;;;;2.43;2.23;;;;;;;3.33;56.25;96432.66;5106290;28;20198;-72
2022/12/13 05:26:58;;;;;;;2.90;2.20;;;;;;;3.10;55.61;96402.56;5114037;28;20202;-73
2022/12/13 05:29:26;;;;;;;3.27;2.27;;;;;;;3.16;55.94;96423.72;5126721;28;20192;-72
2022/12/13 05:31:53;;;;;;;2.87;2.60;;;;;;;3.37;55.60;96435.09;5126913;28;20686;-73
2022/12/13 05:34:20;;;;;;;2.30;2.10;;;;;;;3.48;55.18;96430.53;5126621;28;20684;-74
2022/12/13 05:36:47;;;;;;;2.57;2.00;;;;;;;3.49;54.54;96437.31;5108097;28;20650;-72
2022/12/13 05:39:14;;;;;;;2.43;2.20;;;;;;;3.50;53.48;96453.50;5126596;28;20784;-72
2022/12/13 05:41:57;;;;;;;5.27;2.37;;;;;;;3.44;52.51;96463.91;5126577;28;20206;-73
2022/12/13 05:44:31;;;;;;;4.00;2.60;;;;;;;3.53;53.20;96456.81;5126727;28;20187;-73
2022/12/13 05:46:58;;;;;;;3.57;2.70;;;;;;;3.52;53.18;96452.59;5126391;28;20566;-73
2022/12/13 05:49:29;;;;;;;3.03;2.70;;;;;;;3.47;52.70;96451.03;5126417;28;20685;-73
2022/12/13 05:51:56;;;;;;;4.63;3.03;;;;;;;3.48;52.41;96463.78;5127250;27;20314;-73
2022/12/13 05:54:23;;;;;;;5.50;2.67;;;;;;;3.50;52.49;96459.47;5129825;27;20186;-73
2022/12/13 05:56:50;;;;;;;3.37;2.77;;;;;;;3.53;52.55;96479.84;5145673;27;20213;-73
2022/12/13 05:59:17;;;;;;;3.23;2.63;;;;;;;3.43;52.90;96480.97;5129739;27;20556;-73
2022/12/13 06:01:44;;;;;;;6.87;2.93;;;;;;;3.12;53.58;96480.09;5129810;27;20179;-72
2022/12/13 06:04:12;;;;;;;4.50;3.13;;;;;;;3.11;54.74;96463.91;5129819;27;20238;-74
2022/12/13 06:06:50;;;;;;;3.67;2.50;;;;;;;3.24;54.68;96474.66;5129904;27;20193;-73
2022/12/13 06:09:18;;;;;;;4.80;2.53;;;;;;;3.12;53.76;96478.41;5129815;27;20210;-72
2022/12/13 06:11:45;;;;;;;2.93;2.30;;;;;;;3.14;54.69;96479.19;5129812;27;20271;-73
2022/12/13 06:14:12;;;;;;;3.63;2.47;;;;;;;2.67;53.95;96425.88;5129490;27;20222;-72
2022/12/13 06:16:51;;;;;;;4.97;2.67;;;;;;;2.84;54.80;96495.31;5129266;27;20186;-73
2022/12/13 06:19:19;;;;;;;4.37;2.63;;;;;;;2.70;54.21;96496.53;5129624;27;20187;-72
2022/12/13 06:21:46;;;;;;;4.60;2.47;;;;;;;2.85;54.50;96491.88;5129456;27;20651;-72
2022/12/13 06:24:15;;;;;;;3.83;2.77;;;;;;;2.92;53.85;96487.44;5129270;27;20199;-73
2022/12/13 06:26:42;;;;;;;4.17;3.40;;;;;;;2.91;54.46;96501.09;5129136;27;20244;-72
2022/12/13 06:29:13;;;;;;;4.17;2.70;;;;;;;2.87;54.47;96499.50;5129162;27;20191;-73
2022/12/13 06:31:53;;;;;;;2.93;2.67;;;;;;;3.04;54.14;96517.81;5128999;27;20227;-73
2022/12/13 06:34:33;;;;;;;4.17;2.90;;;;;;;3.11;54.62;96530.41;5127690;27;20202;-73
2022/12/13 06:37:05;;;;;;;4.10;2.87;;;;;;;3.05;54.10;96530.56;5124304;27;20710;-75
2022/12/13 06:39:33;;;;;;;4.73;3.37;;;;;;;3.03;53.94;96534.88;5123354;27;20702;-73
2022/12/13 06:42:05;;;;;;;3.73;2.53;;;;;;;3.01;52.90;96551.16;5110566;27;20670;-74
2022/12/13 06:45:00;;;;;;;3.77;3.37;;;;;;;2.97;52.82;96560.59;5106679;27;20201;-73
2022/12/13 06:47:29;;;;;;;3.27;2.50;;;;;;;3.00;53.19;96554.59;5099130;27;20221;-74
2022/12/13 06:49:58;;;;;;;3.17;2.67;;;;;;;2.64;53.00;96494.94;5129254;27;20278;-73
2022/12/13 06:52:31;;;;;;;3.87;2.73;;;;;;;3.14;53.26;96555.94;5128532;27;20534;-73
2022/12/13 06:54:58;;;;;;;4.50;2.53;;;;;;;3.13;53.63;96554.25;5128884;27;20187;-72
2022/12/13 06:57:25;;;;;;;4.00;2.67;;;;;;;3.30;52.95;96556.38;5128813;27;20210;-74
2022/12/13 06:59:52;;;;;;;4.47;2.70;;;;;;;3.19;53.78;96558.38;5109997;27;20191;-74
2022/12/13 07:02:20;;;;;;;3.27;2.50;;;;;;;3.35;53.22;96561.38;5127879;27;20282;-74
2022/12/13 07:04:52;;;;;;;3.83;2.67;;;;;;;3.41;53.09;96564.63;5093658;27;20662;-74
2022/12/13 07:07:19;;;;;;;4.30;2.80;;;;;;;3.39;53.45;96565.53;5128465;27;20480;-73
2022/12/13 07:09:47;;;;;;;6.40;2.83;;;;;;;3.47;53.33;96577.28;5127914;27;20187;-72
2022/12/13 07:12:14;;;;;;;3.43;2.30;;;;;;;3.58;52.86;96582.97;5127895;27;20245;-72
2022/12/13 07:14:41;;;;;;;2.87;2.57;;;;;;;3.34;52.61;96583.56;5127971;27;20717;-72
2022/12/13 07:17:09;;;;;;;4.10;2.77;;;;;;;3.45;52.60;96581.59;5143742;27;20207;-72
2022/12/13 07:19:37;;;;;;;4.00;2.70;;;;;;;3.45;53.08;96585.84;5127976;27;20229;-73
2022/12/13 07:22:06;;;;;;;3.77;2.90;;;;;;;3.46;53.11;96600.34;5127928;27;20701;-72
2022/12/13 07:24:34;;;;;;;5.67;3.17;;;;;;;3.56;53.14;96594.13;5128162;27;20274;-73
2022/12/13 07:27:02;;;;;;;4.23;3.20;;;;;;;3.39;52.30;96591.13;5109647;27;20292;-73
2022/12/13 07:29:29;;;;;;;5.87;4.37;;;;;;;3.44;53.48;96600.41;5128319;27;20300;-73
2022/12/13 07:31:56;;;;;;;5.50;2.83;;;;;;;3.56;52.72;96599.25;5127569;27;20310;-73
2022/12/13 07:34:29;;;;;;;4.80;3.13;;;;;;;3.36;52.91;96601.47;5127858;27;20187;-72
2022/12/13 07:36:57;;;;;;;3.40;2.73;;;;;;;3.34;52.96;96592.97;5127816;27;20541;-74
2022/12/13 07:39:25;;;;;;;3.07;2.77;;;;;;;3.30;53.17;96589.63;5127727;27;20209;-73
2022/12/13 07:41:54;;;;;;;4.17;2.63;;;;;;;3.34;52.47;96604.03;5127913;27;20224;-72
2022/12/13 07:44:22;;;;;;;3.33;2.93;;;;;;;3.36;53.66;96607.41;5127410;27;20227;-73
2022/12/13 07:46:49;;;;;;;3.53;2.70;;;;;;;3.51;52.50;96619.81;5127656;27;20658;-72
2022/12/13 07:49:16;;;;;;;3.93;2.60;;;;;;;3.50;52.04;96607.06;5108697;27;20184;-74
2022/12/13 07:51:43;;;;;;;5.30;3.67;;;;;;;3.56;51.52;96623.13;5127203;27;20218;-74
2022/12/13 07:54:10;;;;;;;5.00;3.30;;;;;;;3.67;51.95;96622.84;5091669;27;20568;-73
2022/12/13 07:56:37;;;;;;;4.63;2.63;;;;;;;3.74;50.98;96619.25;5109019;27;20187;-73
2022/12/13 07:59:04;;;;;;;4.40;3.33;;;;;;;3.71;51.27;96599.66;5127868;27;20214;-73
2022/12/13 08:01:33;;;;;;;4.30;3.10;;;;;;;3.58;51.00;96616.25;5127492;27;20221;-73
2022/12/13 08:04:01;;;;;;;3.40;2.90;;;;;;;3.73;50.95;96630.38;5127403;27;20179;-73
2022/12/13 08:06:29;;;;;;;4.20;3.10;;;;;;;3.78;50.94;96626.81;5127380;27;20691;-73
2022/12/13 08:08:57;;;;;;;4.33;3.00;;;;;;;3.72;50.13;96596.25;5125096;27;20702;-73
2022/12/13 08:11:24;;;;;;;4.57;2.80;;;;;;;3.89;50.76;96627.38;5127540;27;20296;-75
2022/12/13 08:13:54;;;;;;;3.67;3.17;;;;;;;3.92;50.18;96613.63;5127286;27;20218;-74
2022/12/13 08:16:21;;;;;;;4.67;3.30;;;;;;;3.96;50.25;96643.41;5127384;27;20295;-78
2022/12/13 08:18:56;;;;;;;3.13;2.47;;;;;;;3.89;49.40;96655.56;5127335;27;20620;-74
2022/12/13 08:21:38;;;;;;;3.63;2.87;;;;;;;3.79;50.92;96632.78;5127617;27;20635;-72
2022/12/13 08:24:24;;;;;;;5.70;3.30;;;;;;;3.77;50.37;96650.72;5125816;27;20199;-72
2022/12/13 08:26:53;;;;;;;5.83;2.73;;;;;;;3.69;51.14;96646.69;5127488;27;20183;-74
2022/12/13 08:29:20;;;;;;;5.37;2.47;;;;;;;3.83;51.34;96657.44;5127039;27;20190;-74
2022/12/13 08:32:04;;;;;;;3.93;2.97;;;;;;;3.80;49.75;96649.81;5126667;27;20218;-74
2022/12/13 08:34:31;;;;;;;3.27;2.67;;;;;;;3.78;50.14;96657.53;5126891;27;20184;-73
2022/12/13 08:36:59;;;;;;;3.67;3.17;;;;;;;3.49;51.45;96603.66;5125867;27;20664;-74
2022/12/13 08:39:35;;;;;;;5.43;3.57;;;;;;;3.86;50.37;96652.22;5126780;28;20228;-74
2022/12/13 08:42:10;;;;;;;5.60;3.37;;;;;;;3.89;49.74;96641.91;5126873;28;20581;-75
2022/12/13 08:44:52;;;;;;;3.83;3.10;;;;;;;3.97;49.72;96639.97;5126350;28;20782;-74
2022/12/13 08:47:21;;;;;;;5.23;3.53;;;;;;;3.95;50.21;96644.31;5114749;28;20678;-72
2022/12/13 08:49:53;;;;;;;3.07;2.73;;;;;;;3.92;49.68;96644.38;5121405;28;20312;-73
2022/12/13 08:52:22;;;;;;;3.73;2.90;;;;;;;3.94;49.78;96640.03;5095265;28;20285;-73
2022/12/13 08:54:49;;;;;;;5.83;3.77;;;;;;;4.03;49.64;96635.53;5127037;28;20180;-74
2022/12/13 08:57:16;;;;;;;3.63;3.30;;;;;;;4.06;49.64;96625.19;5126780;28;20180;-75
2022/12/13 08:59:44;;;;;;;3.90;3.10;;;;;;;3.77;49.38;96604.63;5126847;28;20179;-73
2022/12/13 09:02:13;;;;;;;3.33;2.67;;;;;;;4.12;49.45;96616.53;5141928;27;20195;-74
2022/12/13 09:04:41;;;;;;;3.93;2.90;;;;;;;4.30;49.92;96615.16;5126559;28;20279;-76
2022/12/13 09:07:08;;;;;;;4.20;3.60;;;;;;;4.27;49.36;96621.19;5142662;27;20190;-76
2022/12/13 09:09:35;;;;;;;3.07;2.77;;;;;;;4.34;49.01;96635.53;5126925;28;20561;-77
2022/12/13 09:12:04;;;;;;;5.00;3.23;;;;;;;4.30;49.45;96622.84;5126422;27;20267;-75
2022/12/13 09:14:37;;;;;;;4.60;3.37;;;;;;;4.47;49.09;96624.03;5107743;28;20211;-76
2022/12/13 09:17:14;;;;;;;4.20;3.50;;;;;;;4.48;48.64;96622.31;5126613;28;20183;-74
2022/12/13 09:19:51;;;;;;;5.43;3.87;;;;;;;4.49;47.82;96617.13;5126643;28;20187;-76
2022/12/13 09:22:25;;;;;;;4.67;3.60;;;;;;;4.43;47.50;96619.88;5126855;28;20188;-79
2022/12/13 09:25:01;;;;;;;8.83;4.20;;;;;;;4.39;48.59;96608.03;5108125;28;20192;-84
2022/12/13 09:27:31;;;;;;;4.50;3.07;;;;;;;4.33;47.62;96618.47;5111838;27;20276;-79
2022/12/13 09:30:07;;;;;;;5.50;3.63;;;;;;;4.46;48.36;96585.63;5129996;27;20191;-81
2022/12/13 09:32:35;;;;;;;4.73;3.37;;;;;;;4.54;47.56;96599.91;5130060;27;20758;-80
2022/12/13 09:35:02;;;;;;;3.43;2.80;;;;;;;4.70;46.68;96606.25;5130246;27;20195;-79
2022/12/13 09:37:30;;;;;;;5.03;2.87;;;;;;;4.68;47.16;96595.22;5111971;27;20214;-87
2022/12/13 09:39:57;;;;;;;5.43;3.73;;;;;;;4.88;46.45;96600.56;5130306;27;20230;-83
2022/12/13 09:42:49;;;;;;;4.33;3.13;;;;;;;4.84;45.42;96572.53;5114483;27;20280;-81
2022/12/13 09:45:39;;;;;;;4.47;3.00;;;;;;;4.89;45.94;96571.47;5130015;27;20285;-81
2022/12/13 09:48:16;;;;;;;5.40;3.63;;;;;;;5.23;44.72;96590.94;5130260;27;20192;-78
2022/12/13 09:50:49;;;;;;;7.23;3.60;;;;;;;5.13;45.53;96584.44;5112596;27;20205;-81
2022/12/13 09:53:37;;;;;;;4.47;2.80;;;;;;;4.95;44.93;96570.44;5111130;27;20609;-86
2022/12/13 09:56:11;;;;;;;7.43;4.23;;;;;;;5.17;44.65;96568.06;5130154;27;20692;-80
2022/12/13 09:58:40;;;;;;;5.73;2.87;;;;;;;5.15;44.44;96557.00;5111695;27;20190;-80
2022/12/13 10:01:26;;;;;;;6.17;4.17;;;;;;;5.44;44.69;96559.44;5128500;27;20201;-81
2022/12/13 10:03:58;;;;;;;6.83;3.67;;;;;;;5.54;43.94;96558.25;5113036;27;20644;-79
2022/12/13 10:06:31;;;;;;;5.17;3.33;;;;;;;5.62;44.84;96562.22;5108965;28;20275;-79
2022/12/13 10:08:59;;;;;;;7.17;4.57;;;;;;;5.71;43.69;96561.06;5108742;28;20182;-80
2022/12/13 10:11:28;;;;;;;8.33;3.90;;;;;;;5.75;42.92;96531.81;5125010;27;20702;-79
2022/12/13 10:14:07;;;;;;;4.07;2.87;;;;;;;5.68;41.33;96502.94;5095357;27;20938;-79
2022/12/13 10:16:34;;;;;;;6.57;2.90;;;;;;;5.80;40.84;96553.03;5128779;27;20640;-81
2022/12/13 10:19:12;;;;;;;5.40;3.90;;;;;;;5.92;41.57;96547.50;5110887;27;20719;-79
2022/12/13 10:21:59;;;;;;;5.20;3.80;;;;;;;6.05;39.00;96553.91;5144781;27;20212;-82
2022/12/13 10:24:49;;;;;;;4.13;3.33;;;;;;;6.23;39.33;96544.66;5110102;27;20193;-83
2022/12/13 10:27:57;;;;;;;5.27;3.83;;;;;;;6.46;38.47;96544.66;5114841;27;20205;-81
2022/12/13 10:30:42;;;;;;;3.47;2.73;;;;;;;6.56;39.34;96530.53;5117112;27;20230;-79
2022/12/13 10:33:47;;;;;;;14.10;4.70;;;;;;;6.62;40.29;96532.88;5108218;28;20247;-83
2022/12/13 10:36:37;;;;;;;5.87;3.20;;;;;;;6.65;37.86;96534.50;5108436;27;20239;-80
2022/12/13 10:39:04;;;;;;;5.77;4.20;;;;;;;6.78;38.05;96531.38;5116604;27;20207;-79
2022/12/13 10:41:36;;;;;;;5.53;2.90;;;;;;;6.64;37.69;96481.38;5108336;28;20193;-79
2022/12/13 10:44:11;;;;;;;4.10;2.70;;;;;;;6.77;36.04;96534.03;5108544;28;20187;-80
2022/12/13 10:46:40;;;;;;;3.00;2.20;;;;;;;6.26;36.48;96506.84;5108314;28;20523;-82
2022/12/13 10:49:31;;;;;;;5.50;3.33;;;;;;;6.65;37.79;96529.34;5124402;27;20309;-80
2022/12/13 10:52:00;;;;;;;9.87;3.80;;;;;;;6.89;37.91;96538.69;5122300;27;20227;-80
2022/12/13 10:54:36;;;;;;;2.60;2.40;;;;;;;6.52;36.64;96493.81;5089659;28;20755;-81
2022/12/13 10:57:15;;;;;;;4.47;3.40;;;;;;;6.71;38.08;96544.56;5108997;28;20278;-79
2022/12/13 10:59:47;;;;;;;3.90;3.23;;;;;;;6.70;38.35;96541.13;5108677;28;20253;-83
2022/12/13 11:02:34;;;;;;;4.17;3.03;;;;;;;6.48;40.10;96533.41;5123541;27;20193;-81
2022/12/13 11:05:26;;;;;;;3.77;2.60;;;;;;;6.22;40.14;96520.69;5107838;28;20253;-81
2022/12/13 11:07:56;;;;;;;6.43;2.97;;;;;;;6.40;40.75;96512.31;5123658;27;20183;-82
2022/12/13 11:10:28;;;;;;;3.13;2.67;;;;;;;6.47;40.12;96525.78;5108220;28;20195;-83
2022/12/13 11:13:06;;;;;;;7.60;4.07;;;;;;;6.64;40.63;96512.22;5108014;28;20317;-82
2022/12/13 11:15:37;;;;;;;2.63;2.30;;;;;;;6.60;38.51;96519.25;5110661;27;20269;-81
2022/12/13 11:18:17;;;;;;;5.67;3.23;;;;;;;6.70;38.87;96522.31;5089701;28;20190;-85
2022/12/13 11:20:54;;;;;;;6.47;3.47;;;;;;;6.71;39.56;96483.66;5072569;28;20559;-81
2022/12/13 11:23:41;;;;;;;4.07;3.17;;;;;;;6.78;38.78;96515.13;5107675;28;20183;-83
2022/12/13 11:26:17;;;;;;;3.37;2.40;;;;;;;6.53;38.23;96499.81;5107496;28;20194;-84
2022/12/13 11:29:06;;;;;;;3.63;3.17;;;;;;;6.41;39.66;96489.97;5107751;28;20183;-78
2022/12/13 11:31:52;;;;;;;6.77;3.63;;;;;;;6.68;40.12;96500.97;5089133;28;20198;-82
2022/12/13 11:34:55;;;;;;;6.60;2.67;;;;;;;6.85;38.31;96506.25;5107673;28;20657;-81
2022/12/13 11:37:49;;;;;;;3.40;2.80;;;;;;;7.18;37.86;96499.75;5107334;28;20212;-80
2022/12/13 11:40:23;;;;;;;3.13;2.47;;;;;;;7.14;37.99;96503.34;5107140;28;20267;-79
2022/12/13 11:42:54;;;;;;;4.20;2.90;;;;;;;7.01;37.34;96510.72;5071856;28;20190;-80
2022/12/13 11:45:38;;;;;;;8.27;3.83;;;;;;;7.04;38.42;96502.91;5107599;28;20627;-83
2022/12/13 11:48:35;;;;;;;2.73;2.40;;;;;;;6.55;38.40;96472.31;5107321;28;20180;-81
2022/12/13 11:51:10;;;;;;;3.40;2.33;;;;;;;6.65;38.56;96513.94;5111096;27;20197;-79
2022/12/13 11:53:56;;;;;;;3.57;2.50;;;;;;;6.43;39.62;96519.88;5128208;27;20279;-80
2022/12/13 11:56:35;;;;;;;3.47;2.17;;;;;;;6.55;40.43;96503.97;5128022;27;20190;-81
2022/12/13 11:59:30;;;;;;;2.63;2.17;;;;;;;6.41;39.80;96515.69;5128564;27;20694;-74
2022/12/13 12:02:31;;;;;;;2.47;2.27;;;;;;;6.40;40.07;96521.75;5125927;27;20216;-75
2022/12/13 12:05:05;;;;;;;3.43;2.77;;;;;;;6.52;39.24;96496.41;5071624;28;20251;-78
2022/12/13 12:07:38;;;;;;;3.90;2.20;;;;;;;7.01;39.93;96512.47;5114942;27;20349;-75
2022/12/13 12:10:42;;;;;;;7.50;4.57;;;;;;;7.21;40.62;96525.38;5108660;27;20577;-75
2022/12/13 12:13:22;;;;;;;6.87;3.30;;;;;;;7.28;40.89;96517.34;5108155;27;20775;-76
2022/12/13 12:15:54;;;;;;;4.77;3.73;;;;;;;7.31;45.19;96512.06;5127860;27;20268;-76